createdAt,value
2018-04-06T00:00:16.062Z,4.14
2018-04-06T00:01:09.510Z,4.04
2018-04-06T00:02:10.422Z,4.03
2018-04-06T00:03:10.428Z,3.97
2018-04-06T00:04:10.273Z,3.94
2018-04-06T00:05:10.582Z,4.04
2018-04-06T00:06:10.043Z,4.03
2018-04-06T00:07:10.053Z,3.99
2018-04-06T00:08:10.724Z,4
2018-04-06T00:09:10.857Z,3.93
2018-04-06T00:10:10.604Z,3.94
2018-04-06T00:11:11.240Z,3.92
2018-04-06T00:12:11.236Z,3.94
2018-04-06T00:13:11.062Z,3.92
2018-04-06T00:14:11.320Z,3.96
2018-04-06T00:15:10.850Z,3.93
2018-04-06T00:16:10.966Z,3.86
2018-04-06T00:17:11.636Z,3.86
2018-04-06T00:18:12.068Z,3.93
2018-04-06T00:19:11.870Z,4.03
2018-04-06T00:20:12.133Z,3.97
2018-04-06T00:21:12.198Z,4.07
2018-04-06T00:22:11.633Z,4.12
2018-04-06T00:23:11.912Z,4.18
2018-04-06T00:24:12.285Z,4.15
2018-04-06T00:25:12.324Z,4.11
2018-04-06T00:26:12.608Z,4.14
2018-04-06T00:27:31.207Z,3.93
2018-04-06T00:28:31.736Z,3.99
2018-04-06T00:29:31.452Z,3.92
2018-04-06T00:30:32.213Z,3.94
2018-04-06T00:31:31.957Z,3.96
2018-04-06T00:32:32.464Z,3.97
2018-04-06T00:33:32.491Z,4
2018-04-06T00:34:32.519Z,3.9
2018-04-06T00:35:32.544Z,3.9
2018-04-06T00:36:32.564Z,3.86
2018-04-06T00:37:32.778Z,3.89
2018-04-06T00:38:32.813Z,3.75
2018-04-06T00:39:32.555Z,3.78
2018-04-06T00:40:32.867Z,3.79
2018-04-06T00:41:32.883Z,3.72
2018-04-06T00:42:32.911Z,3.76
2018-04-06T00:43:33.133Z,3.75
2018-04-06T00:44:33.160Z,3.66
2018-04-06T00:45:32.915Z,3.64
2018-04-06T00:46:33.233Z,3.67
2018-04-06T00:47:33.337Z,3.67
2018-04-06T00:48:33.253Z,3.61
2018-04-06T00:49:33.243Z,3.64
2018-04-06T00:50:33.537Z,3.6
2018-04-06T00:51:33.580Z,3.61
2018-04-06T00:52:33.583Z,3.6
2018-04-06T00:53:33.606Z,3.64
2018-04-06T00:54:33.091Z,3.63
2018-04-06T00:55:33.404Z,3.61
2018-04-06T00:56:33.419Z,3.71
2018-04-06T00:57:33.711Z,3.64
2018-04-06T00:58:33.949Z,3.56
2018-04-06T00:59:33.759Z,3.51
2018-04-06T01:00:33.950Z,3.49
2018-04-06T01:01:33.829Z,3.45
2018-04-06T01:02:34.237Z,3.42
2018-04-06T01:03:33.980Z,3.45
2018-04-06T01:04:34.422Z,3.53
2018-04-06T01:05:34.568Z,3.56
2018-04-06T01:06:34.673Z,3.56
2018-04-06T01:07:34.699Z,3.54
2018-04-06T01:08:34.830Z,3.51
2018-04-06T01:09:35.233Z,3.51
2018-04-06T01:10:34.973Z,3.49
2018-04-06T01:11:35.620Z,3.42
2018-04-06T01:12:35.660Z,3.46
2018-04-06T01:13:35.672Z,3.46
2018-04-06T01:14:35.708Z,3.35
2018-04-06T01:15:35.720Z,3.34
2018-04-06T01:16:35.753Z,3.42
2018-04-06T01:17:35.903Z,3.34
2018-04-06T01:18:35.676Z,3.37
2018-04-06T01:19:36.089Z,3.32
2018-04-06T01:20:36.469Z,3.39
2018-04-06T01:21:36.590Z,3.42
2018-04-06T01:22:36.868Z,3.39
2018-04-06T01:23:37.178Z,3.35
2018-04-06T01:24:37.567Z,3.4
2018-04-06T01:25:37.595Z,3.42
2018-04-06T01:26:37.365Z,3.37
2018-04-06T01:27:38.004Z,3.43
2018-04-06T01:28:38.155Z,3.35
2018-04-06T01:29:38.529Z,3.39
2018-04-06T01:30:38.922Z,3.34
2018-04-06T01:31:38.944Z,3.3
2018-04-06T01:32:39.104Z,3.17
2018-04-06T01:33:38.864Z,3.26
2018-04-06T01:34:38.991Z,3.23
2018-04-06T01:35:39.544Z,3.21
2018-04-06T01:36:39.685Z,3.21
2018-04-06T01:37:39.817Z,3.21
2018-04-06T01:38:40.214Z,3.19
2018-04-06T01:39:39.713Z,3.17
2018-04-06T01:40:40.354Z,3.21
2018-04-06T01:41:40.360Z,3.16
2018-04-06T01:42:39.951Z,3.21
2018-04-06T01:43:40.509Z,3.19
2018-04-06T01:44:40.657Z,3.2
2018-04-06T01:45:41.031Z,3.19
2018-04-06T01:46:41.431Z,3.13
2018-04-06T01:47:41.834Z,3.26
2018-04-06T01:48:42.221Z,3.09
2018-04-06T01:49:42.244Z,3.11
2018-04-06T01:50:41.734Z,3.13
2018-04-06T01:51:42.148Z,3.14
2018-04-06T01:52:42.008Z,3.13
2018-04-06T01:53:42.310Z,3.13
2018-04-06T01:54:42.968Z,3.05
2018-04-06T01:55:42.735Z,3.01
2018-04-06T01:56:43.135Z,2.93
2018-04-06T01:57:43.559Z,2.83
2018-04-06T01:58:43.686Z,2.81
2018-04-06T01:59:44.349Z,2.87
2018-04-06T02:00:44.509Z,2.8
2018-04-06T02:01:44.775Z,2.87
2018-04-06T02:02:45.049Z,2.85
2018-04-06T02:03:45.555Z,2.85
2018-04-06T02:04:45.308Z,2.87
2018-04-06T02:05:45.817Z,2.84
2018-04-06T02:06:45.467Z,2.85
2018-04-06T02:07:46.028Z,2.84
2018-04-06T02:08:45.502Z,2.85
2018-04-06T02:09:45.793Z,2.81
2018-04-06T02:10:46.258Z,2.83
2018-04-06T02:11:46.461Z,2.77
2018-04-06T02:12:47.173Z,2.78
2018-04-06T02:13:47.072Z,2.69
2018-04-06T02:14:47.534Z,2.67
2018-04-06T02:15:47.574Z,2.72
2018-04-06T02:16:48.334Z,2.8
2018-04-06T02:17:48.042Z,2.7
2018-04-06T02:18:48.239Z,2.77
2018-04-06T02:19:48.546Z,2.77
2018-04-06T02:20:48.553Z,2.87
2018-04-06T02:21:48.851Z,2.83
2018-04-06T02:22:49.289Z,2.76
2018-04-06T02:23:49.453Z,2.8
2018-04-06T02:24:49.828Z,2.81
2018-04-06T02:25:49.807Z,2.81
2018-04-06T02:26:50.241Z,2.76
2018-04-06T02:27:50.008Z,2.77
2018-04-06T02:28:50.457Z,2.8
2018-04-06T02:29:50.618Z,2.81
2018-04-06T02:30:51.346Z,2.7
2018-04-06T02:31:51.277Z,2.76
2018-04-06T02:32:51.300Z,2.84
2018-04-06T02:33:51.862Z,2.77
2018-04-06T02:34:52.304Z,2.81
2018-04-06T02:35:52.757Z,2.81
2018-04-06T02:36:52.510Z,2.7
2018-04-06T02:37:52.746Z,2.76
2018-04-06T02:38:52.763Z,2.81
2018-04-06T02:39:52.769Z,2.73
2018-04-06T02:40:53.506Z,2.77
2018-04-06T02:41:53.716Z,2.73
2018-04-06T02:42:53.618Z,2.7
2018-04-06T02:43:53.897Z,2.78
2018-04-06T02:44:54.372Z,2.7
2018-04-06T02:45:54.611Z,2.7
2018-04-06T02:46:54.811Z,2.72
2018-04-06T02:47:55.268Z,2.7
2018-04-06T02:48:55.017Z,2.67
2018-04-06T02:49:55.322Z,2.65
2018-04-06T02:50:55.325Z,2.66
2018-04-06T02:51:55.786Z,2.55
2018-04-06T02:52:55.539Z,2.55
2018-04-06T02:53:56.265Z,2.49
2018-04-06T02:54:56.187Z,2.55
2018-04-06T02:55:56.238Z,2.58
2018-04-06T02:56:56.528Z,2.54
2018-04-06T02:57:56.704Z,2.58
2018-04-06T02:58:56.918Z,2.59
2018-04-06T02:59:57.231Z,2.55
2018-04-06T03:00:57.062Z,2.66
2018-04-06T03:01:57.336Z,2.58
2018-04-06T03:02:57.374Z,2.58
2018-04-06T03:03:57.362Z,2.59
2018-04-06T03:04:57.660Z,2.6
2018-04-06T03:05:57.763Z,2.54
2018-04-06T03:06:58.165Z,2.58
2018-04-06T03:07:58.048Z,2.52
2018-04-06T03:08:58.612Z,2.52
2018-04-06T03:09:58.662Z,2.49
2018-04-06T03:10:58.725Z,2.44
2018-04-06T03:11:58.810Z,2.47
2018-04-06T03:12:58.760Z,2.36
2018-04-06T03:13:59.665Z,2.42
2018-04-06T03:14:59.608Z,2.44
2018-04-06T03:15:59.757Z,2.42
2018-04-06T03:16:59.963Z,2.4
2018-04-06T03:17:59.620Z,2.45
2018-04-06T03:18:59.481Z,2.42
2018-04-06T03:19:59.342Z,2.36
2018-04-06T03:20:59.628Z,2.3
2018-04-06T03:21:59.912Z,2.24
2018-04-06T03:23:00.334Z,2.34
2018-04-06T03:24:00.837Z,2.36
2018-04-06T03:25:01.330Z,2.31
2018-04-06T03:26:01.536Z,2.33
2018-04-06T03:27:01.653Z,2.33
2018-04-06T03:28:01.793Z,2.33
2018-04-06T03:29:01.360Z,2.31
2018-04-06T03:30:00.624Z,2.26
2018-04-06T03:31:00.481Z,2.33
2018-04-06T03:32:00.682Z,2.33
2018-04-06T03:33:00.941Z,2.38
2018-04-06T03:34:01.069Z,2.36
2018-04-06T03:35:01.352Z,2.34
2018-04-06T03:36:01.430Z,2.36
2018-04-06T03:37:01.115Z,2.26
2018-04-06T03:38:01.418Z,2.24
2018-04-06T03:39:01.163Z,2.24
2018-04-06T03:40:00.935Z,2.24
2018-04-06T03:41:01.482Z,2.26
2018-04-06T03:42:01.882Z,2.31
2018-04-06T03:43:01.767Z,2.24
2018-04-06T03:44:02.209Z,2.26
2018-04-06T03:45:02.409Z,2.29
2018-04-06T03:46:02.497Z,2.24
2018-04-06T03:47:02.199Z,2.2
2018-04-06T03:48:02.455Z,2.11
2018-04-06T03:49:02.933Z,2.09
2018-04-06T03:50:03.414Z,2.08
2018-04-06T03:51:03.066Z,2.08
2018-04-06T03:52:03.216Z,2.06
2018-04-06T03:53:03.348Z,2.08
2018-04-06T03:54:03.799Z,1.94
2018-04-06T03:55:03.731Z,1.89
2018-04-06T03:56:03.719Z,1.97
2018-04-06T03:57:04.037Z,1.87
2018-04-06T03:58:04.137Z,1.86
2018-04-06T03:59:04.189Z,1.79
2018-04-06T04:00:17.731Z,1.89
2018-04-06T04:01:04.597Z,1.86
2018-04-06T04:02:04.641Z,1.86
2018-04-06T04:03:04.787Z,1.89
2018-04-06T04:04:05.339Z,1.97
2018-04-06T04:05:05.376Z,1.87
2018-04-06T04:06:05.538Z,1.84
2018-04-06T04:07:05.454Z,1.78
2018-04-06T04:08:05.831Z,1.84
2018-04-06T04:09:06.055Z,1.82
2018-04-06T04:10:05.739Z,1.84
2018-04-06T04:11:05.619Z,1.97
2018-04-06T04:12:05.993Z,1.84
2018-04-06T04:13:06.451Z,1.84
2018-04-06T04:14:06.608Z,1.92
2018-04-06T04:15:06.449Z,1.89
2018-04-06T04:16:06.498Z,1.93
2018-04-06T04:17:06.806Z,1.9
2018-04-06T04:18:06.788Z,1.92
2018-04-06T04:19:06.748Z,1.92
2018-04-06T04:20:06.862Z,1.87
2018-04-06T04:21:06.962Z,1.86
2018-04-06T04:22:07.171Z,1.89
2018-04-06T04:23:06.848Z,1.86
2018-04-06T04:24:07.319Z,1.89
2018-04-06T04:25:07.404Z,1.89
2018-04-06T04:26:07.413Z,1.9
2018-04-06T04:27:07.145Z,1.83
2018-04-06T04:28:07.315Z,1.84
2018-04-06T04:29:07.617Z,1.87
2018-04-06T04:30:07.424Z,2.01
2018-04-06T04:31:07.669Z,1.92
2018-04-06T04:32:07.888Z,2.06
2018-04-06T04:33:07.653Z,2.05
2018-04-06T04:34:07.677Z,2.09
2018-04-06T04:35:08.073Z,2.09
2018-04-06T04:36:07.857Z,2.01
2018-04-06T04:37:07.858Z,2.12
2018-04-06T04:38:07.969Z,2.05
2018-04-06T04:39:07.998Z,2.09
2018-04-06T04:40:08.311Z,2.12
2018-04-06T04:41:08.607Z,2.08
2018-04-06T04:42:08.645Z,2.13
2018-04-06T04:43:08.632Z,2.06
2018-04-06T04:44:08.408Z,2.09
2018-04-06T04:45:08.588Z,2.08
2018-04-06T04:46:08.977Z,2.06
2018-04-06T04:47:09.074Z,2.11
2018-04-06T04:48:09.524Z,2.09
2018-04-06T04:49:09.572Z,2.15
2018-04-06T04:50:09.660Z,2.06
2018-04-06T04:51:09.980Z,2.15
2018-04-06T04:52:10.214Z,2.22
2018-04-06T04:53:10.188Z,2.34
2018-04-06T04:54:10.623Z,2.34
2018-04-06T04:55:10.785Z,2.26
2018-04-06T04:56:11.032Z,2.33
2018-04-06T04:57:11.416Z,2.26
2018-04-06T04:58:11.546Z,2.24
2018-04-06T04:59:11.849Z,2.34
2018-04-06T05:00:12.529Z,2.31
2018-04-06T05:01:11.631Z,2.23
2018-04-06T05:02:11.998Z,2.34
2018-04-06T05:03:11.674Z,2.36
2018-04-06T05:04:12.042Z,2.47
2018-04-06T05:05:11.865Z,2.3
2018-04-06T05:06:11.788Z,2.47
2018-04-06T05:07:12.178Z,2.44
2018-04-06T05:08:12.036Z,2.44
2018-04-06T05:09:12.176Z,2.44
2018-04-06T05:10:12.825Z,2.44
2018-04-06T05:11:12.833Z,2.48
2018-04-06T05:12:13.203Z,2.47
2018-04-06T05:13:13.268Z,2.55
2018-04-06T05:14:12.987Z,2.49
2018-04-06T05:15:13.742Z,2.55
2018-04-06T05:16:15.106Z,2.52
2018-04-06T05:17:15.054Z,2.55
2018-04-06T05:18:14.372Z,2.69
2018-04-06T05:19:15.221Z,2.72
2018-04-06T05:20:14.457Z,2.78
2018-04-06T05:21:14.186Z,2.81
2018-04-06T05:22:14.274Z,2.84
2018-04-06T05:23:14.793Z,2.87
2018-04-06T05:24:14.986Z,2.99
2018-04-06T05:25:14.988Z,2.99
2018-04-06T05:26:15.363Z,2.99
2018-04-06T05:27:14.664Z,3.02
2018-04-06T05:28:15.558Z,3.03
2018-04-06T05:29:15.730Z,3.08
2018-04-06T05:30:15.719Z,3.16
2018-04-06T05:31:15.749Z,3.13
2018-04-06T05:32:15.511Z,3.2
2018-04-06T05:33:15.566Z,3.17
2018-04-06T05:34:15.533Z,3.16
2018-04-06T05:35:15.898Z,3.21
2018-04-06T05:36:15.733Z,3.21
2018-04-06T05:37:15.890Z,3.19
2018-04-06T05:38:15.910Z,3.42
2018-04-06T05:39:16.213Z,3.46
2018-04-06T05:40:16.234Z,3.56
2018-04-06T05:41:15.736Z,3.66
2018-04-06T05:42:16.398Z,3.71
2018-04-06T05:43:16.782Z,3.78
2018-04-06T05:44:16.903Z,4
2018-04-06T05:45:16.684Z,4.72
2018-04-06T05:46:16.703Z,5.52
2018-04-06T05:47:16.969Z,6.42
2018-04-06T05:48:16.728Z,7.23
2018-04-06T05:49:17.148Z,7.86
2018-04-06T05:50:17.531Z,8.47
2018-04-06T05:51:17.650Z,9.03
2018-04-06T05:52:17.675Z,9.5
2018-04-06T05:53:18.501Z,9.96
2018-04-06T05:54:18.366Z,10.26
2018-04-06T05:55:18.868Z,10.61
2018-04-06T05:56:18.518Z,11.03
2018-04-06T05:57:18.593Z,11.27
2018-04-06T05:58:18.886Z,11.89
2018-04-06T05:59:18.586Z,12.4
2018-04-06T06:00:18.925Z,13.11
2018-04-06T06:01:18.923Z,13.6
2018-04-06T06:02:19.502Z,13.72
2018-04-06T06:03:19.774Z,13.7
2018-04-06T06:04:19.504Z,13.66
2018-04-06T06:05:20.112Z,13.9
2018-04-06T06:06:19.585Z,14.24
2018-04-06T06:07:19.865Z,14.26
2018-04-06T06:08:19.645Z,14.42
2018-04-06T06:09:19.943Z,14.74
2018-04-06T06:10:20.185Z,14.71
2018-04-06T06:11:19.953Z,14.85
2018-04-06T06:12:20.452Z,14.74
2018-04-06T06:13:20.454Z,14.77
2018-04-06T06:14:19.944Z,15.1
2018-04-06T06:15:20.555Z,15.49
2018-04-06T06:16:20.768Z,15.89
2018-04-06T06:17:20.054Z,15.92
2018-04-06T06:18:20.929Z,16.21
2018-04-06T06:19:20.122Z,16.16
2018-04-06T06:20:20.131Z,15.71
2018-04-06T06:21:20.756Z,15.41
2018-04-06T06:22:20.778Z,15.59
2018-04-06T06:23:20.549Z,15.7
2018-04-06T06:24:20.545Z,16.18
2018-04-06T06:25:21.196Z,16.69
2018-04-06T06:26:21.031Z,17.15
2018-04-06T06:27:21.349Z,18.02
2018-04-06T06:28:21.588Z,18.44
2018-04-06T06:29:21.935Z,18.61
2018-04-06T06:30:22.364Z,18.74
2018-04-06T06:31:22.226Z,18.5
2018-04-06T06:32:21.985Z,18.51
2018-04-06T06:33:22.050Z,18.56
2018-04-06T06:34:21.816Z,18.41
2018-04-06T06:35:22.012Z,18.71
2018-04-06T06:36:22.269Z,19.23
2018-04-06T06:37:22.180Z,19.3
2018-04-06T06:38:22.196Z,19.46
2018-04-06T06:39:21.948Z,19.6
2018-04-06T06:40:22.438Z,19.47
2018-04-06T06:41:22.212Z,19.63
2018-04-06T06:42:22.729Z,19.47
2018-04-06T06:43:22.965Z,19.53
2018-04-06T06:44:23.272Z,19.89
2018-04-06T06:45:23.366Z,20.38
2018-04-06T06:46:23.423Z,20.54
2018-04-06T06:47:23.762Z,20.38
2018-04-06T06:48:23.463Z,20.6
2018-04-06T06:49:23.773Z,21.12
2018-04-06T06:50:23.827Z,21.62
2018-04-06T06:51:23.882Z,21.9
2018-04-06T06:52:23.596Z,21.83
2018-04-06T06:53:23.942Z,22.02
2018-04-06T06:54:23.779Z,22.45
2018-04-06T06:55:23.985Z,22.59
2018-04-06T06:56:24.001Z,22.64
2018-04-06T06:57:23.490Z,22.85
2018-04-06T06:58:23.780Z,22.61
2018-04-06T06:59:24.306Z,22.69
2018-04-06T07:00:27.593Z,22.44
2018-04-06T07:01:28.180Z,22.57
2018-04-06T07:02:27.644Z,21.93
2018-04-06T07:03:27.954Z,22.07
2018-04-06T07:04:27.708Z,22.26
2018-04-06T07:05:28.296Z,22.64
2018-04-06T07:06:28.324Z,22.91
2018-04-06T07:07:28.079Z,23.62
2018-04-06T07:08:28.933Z,24.44
2018-04-06T07:09:28.788Z,25.08
2018-04-06T07:10:28.792Z,25.02
2018-04-06T07:11:29.273Z,25.38
2018-04-06T07:12:29.238Z,25.69
2018-04-06T07:13:29.232Z,25.57
2018-04-06T07:14:29.008Z,25.56
2018-04-06T07:15:29.038Z,25.89
2018-04-06T07:16:28.787Z,26.07
2018-04-06T07:17:29.344Z,26.34
2018-04-06T07:18:29.156Z,26.19
2018-04-06T07:19:29.134Z,26.49
2018-04-06T07:20:29.675Z,26.34
2018-04-06T07:21:29.687Z,26.47
2018-04-06T07:22:30.006Z,26.54
2018-04-06T07:23:29.762Z,27
2018-04-06T07:24:29.543Z,27.36
2018-04-06T07:25:29.566Z,27.93
2018-04-06T07:26:29.587Z,27.62
2018-04-06T07:27:30.386Z,27.84
2018-04-06T07:28:30.184Z,27.89
2018-04-06T07:29:30.211Z,27.45
2018-04-06T07:30:29.720Z,27.18
2018-04-06T07:31:30.726Z,27.41
2018-04-06T07:32:30.450Z,27.06
2018-04-06T07:33:30.575Z,26.99
2018-04-06T07:34:30.389Z,26.74
2018-04-06T07:35:30.995Z,26.47
2018-04-06T07:36:31.602Z,26.42
2018-04-06T07:37:31.634Z,26.47
2018-04-06T07:38:31.626Z,26.71
2018-04-06T07:39:31.682Z,26.5
2018-04-06T07:40:31.176Z,26.71
2018-04-06T07:41:31.629Z,27.11
2018-04-06T07:42:31.635Z,27.37
2018-04-06T07:43:31.842Z,27.37
2018-04-06T07:44:32.202Z,27.08
2018-04-06T07:45:31.484Z,27.66
2018-04-06T07:46:32.854Z,28.01
2018-04-06T07:47:32.719Z,28.58
2018-04-06T07:48:32.682Z,29.01
2018-04-06T07:49:32.665Z,29.2
2018-04-06T07:50:32.653Z,29.39
2018-04-06T07:51:33.439Z,29.23
2018-04-06T07:52:32.570Z,29.03
2018-04-06T07:53:31.888Z,28.8
2018-04-06T07:54:32.231Z,29.13
2018-04-06T07:55:32.373Z,29.69
2018-04-06T07:56:32.379Z,30.28
2018-04-06T07:57:32.147Z,30.34
2018-04-06T07:58:33.049Z,29.45
2018-04-06T07:59:33.097Z,29.28
2018-04-06T08:00:33.149Z,29.24
2018-04-06T08:01:33.126Z,29.21
2018-04-06T08:02:32.890Z,28.6
2018-04-06T08:03:32.655Z,28.61
2018-04-06T08:04:33.036Z,28.7
2018-04-06T08:05:32.983Z,29.17
2018-04-06T08:06:33.722Z,29.77
2018-04-06T08:07:33.146Z,30.28
2018-04-06T08:08:33.138Z,30.84
2018-04-06T08:09:33.193Z,31.47
2018-04-06T08:10:33.586Z,31.82
2018-04-06T08:11:33.602Z,32.24
2018-04-06T08:12:33.951Z,32.65
2018-04-06T08:13:34.041Z,32.81
2018-04-06T08:14:34.113Z,32.59
2018-04-06T08:15:34.121Z,32.62
2018-04-06T08:16:34.659Z,32.52
2018-04-06T08:17:35.068Z,32.37
2018-04-06T08:18:34.979Z,31.67
2018-04-06T08:19:35.026Z,31.65
2018-04-06T08:20:34.837Z,31.71
2018-04-06T08:21:35.156Z,31.87
2018-04-06T08:22:34.920Z,31.95
2018-04-06T08:23:34.997Z,31.88
2018-04-06T08:24:35.035Z,31.7
2018-04-06T08:25:35.535Z,31.65
2018-04-06T08:26:35.763Z,31.63
2018-04-06T08:27:35.442Z,31.8
2018-04-06T08:28:34.871Z,31.9
2018-04-06T08:29:35.429Z,31.56
2018-04-06T08:30:36.283Z,31.55
2018-04-06T08:31:35.151Z,30.86
2018-04-06T08:32:35.788Z,30.42
2018-04-06T08:33:35.568Z,30.28
2018-04-06T08:34:35.654Z,30.06
2018-04-06T08:35:35.954Z,30.28
2018-04-06T08:36:35.981Z,30.89
2018-04-06T08:37:35.799Z,31.56
2018-04-06T08:38:35.873Z,32.03
2018-04-06T08:39:35.867Z,32.28
2018-04-06T08:40:36.149Z,32.39
2018-04-06T08:41:35.771Z,32.61
2018-04-06T08:42:36.617Z,32.71
2018-04-06T08:43:36.691Z,33.21
2018-04-06T08:44:36.965Z,33.8
2018-04-06T08:45:37.237Z,34.48
2018-04-06T08:46:36.729Z,35.15
2018-04-06T08:47:37.308Z,34.91
2018-04-06T08:48:37.368Z,35.01
2018-04-06T08:49:37.657Z,35.09
2018-04-06T08:50:37.165Z,35.42
2018-04-06T08:51:37.513Z,35.46
2018-04-06T08:52:37.747Z,35.49
2018-04-06T08:53:37.824Z,35.68
2018-04-06T08:54:37.592Z,35.31
2018-04-06T08:55:38.113Z,34.81
2018-04-06T08:56:38.498Z,34.43
2018-04-06T08:57:38.107Z,34.29
2018-04-06T08:58:38.458Z,34.49
2018-04-06T08:59:39.184Z,34.72
2018-04-06T09:00:39.117Z,34.4
2018-04-06T09:01:39.056Z,34.34
2018-04-06T09:02:39.356Z,34.12
2018-04-06T09:03:39.414Z,34.1
2018-04-06T09:04:39.442Z,34.18
2018-04-06T09:05:39.495Z,34.49
2018-04-06T09:06:39.300Z,34.41
2018-04-06T09:07:39.578Z,34.59
2018-04-06T09:08:39.438Z,34.48
2018-04-06T09:09:40.040Z,34.36
2018-04-06T09:10:39.743Z,34.51
2018-04-06T09:11:40.102Z,34.89
2018-04-06T09:12:40.313Z,35.38
2018-04-06T09:13:40.680Z,35.16
2018-04-06T09:14:40.752Z,35.35
2018-04-06T09:15:40.805Z,35.3
2018-04-06T09:16:40.261Z,34.67
2018-04-06T09:17:40.588Z,34.27
2018-04-06T09:18:40.658Z,34.17
2018-04-06T09:19:40.433Z,34.1
2018-04-06T09:20:41.119Z,34.02
2018-04-06T09:21:41.211Z,34.49
2018-04-06T09:22:40.647Z,34.66
2018-04-06T09:23:41.429Z,34.41
2018-04-06T09:24:41.675Z,34.03
2018-04-06T09:25:41.248Z,34.39
2018-04-06T09:26:41.606Z,34.12
2018-04-06T09:27:41.639Z,33.78
2018-04-06T09:28:41.088Z,34.05
2018-04-06T09:29:41.901Z,33.95
2018-04-06T09:30:42.617Z,34.27
2018-04-06T09:31:42.564Z,34.59
2018-04-06T09:32:42.508Z,34.89
2018-04-06T09:33:42.967Z,35.12
2018-04-06T09:34:43.193Z,34.86
2018-04-06T09:35:43.263Z,34.32
2018-04-06T09:36:43.016Z,33.85
2018-04-06T09:37:43.483Z,34.11
2018-04-06T09:38:42.854Z,34.14
2018-04-06T09:39:43.326Z,34.22
2018-04-06T09:40:43.120Z,34.29
2018-04-06T09:41:42.975Z,34.81
2018-04-06T09:42:43.461Z,35.11
2018-04-06T09:43:43.521Z,35.45
2018-04-06T09:44:43.558Z,35.64
2018-04-06T09:45:43.493Z,35.62
2018-04-06T09:46:43.522Z,35.35
2018-04-06T09:47:43.290Z,35.49
2018-04-06T09:48:43.094Z,35.24
2018-04-06T09:49:43.467Z,35.12
2018-04-06T09:50:43.709Z,35.08
2018-04-06T09:51:44.292Z,35.26
2018-04-06T09:52:44.028Z,35.46
2018-04-06T09:53:43.829Z,35.08
2018-04-06T09:54:43.920Z,35.23
2018-04-06T09:55:44.209Z,35.46
2018-04-06T09:56:44.378Z,35.28
2018-04-06T09:57:44.542Z,35.26
2018-04-06T09:58:44.846Z,35.24
2018-04-06T09:59:44.874Z,35.42
2018-04-06T10:00:44.853Z,35.58
2018-04-06T10:01:45.002Z,35.69
2018-04-06T10:02:45.137Z,35.61
2018-04-06T10:03:44.901Z,34.84
2018-04-06T10:04:44.953Z,34.34
2018-04-06T10:05:45.666Z,34.05
2018-04-06T10:06:45.708Z,33.85
2018-04-06T10:07:46.033Z,34.05
2018-04-06T10:08:47.066Z,33.93
2018-04-06T10:09:46.678Z,34.19
2018-04-06T10:10:46.437Z,34.63
2018-04-06T10:11:46.163Z,35.02
2018-04-06T10:12:47.007Z,35.24
2018-04-06T10:13:46.886Z,35.34
2018-04-06T10:14:47.191Z,34.61
2018-04-06T10:15:46.973Z,34.22
2018-04-06T10:16:47.010Z,34.22
2018-04-06T10:17:47.704Z,34.15
2018-04-06T10:18:47.700Z,33.66
2018-04-06T10:19:47.482Z,33.47
2018-04-06T10:20:47.906Z,33.17
2018-04-06T10:21:47.984Z,33.2
2018-04-06T10:22:47.448Z,33.02
2018-04-06T10:23:48.021Z,32.86
2018-04-06T10:24:47.848Z,32.64
2018-04-06T10:25:48.249Z,32.53
2018-04-06T10:26:48.367Z,32.64
2018-04-06T10:27:48.512Z,32.86
2018-04-06T10:28:48.791Z,32.84
2018-04-06T10:29:49.230Z,32.93
2018-04-06T10:30:49.348Z,33.17
2018-04-06T10:31:49.110Z,33.2
2018-04-06T10:32:49.482Z,33.12
2018-04-06T10:33:49.625Z,33.24
2018-04-06T10:34:49.788Z,33.12
2018-04-06T10:35:49.971Z,32.53
2018-04-06T10:36:50.650Z,32.15
2018-04-06T10:37:50.427Z,31.68
2018-04-06T10:38:50.725Z,31.06
2018-04-06T10:39:51.122Z,30.97
2018-04-06T10:40:51.338Z,30.64
2018-04-06T10:41:50.751Z,30.54
2018-04-06T10:42:51.898Z,30.39
2018-04-06T10:43:51.451Z,30.44
2018-04-06T10:44:51.367Z,30.39
2018-04-06T10:45:52.443Z,30.19
2018-04-06T10:46:52.182Z,30.26
2018-04-06T10:47:52.545Z,30.07
2018-04-06T10:48:52.317Z,29.77
2018-04-06T10:49:52.628Z,29.55
2018-04-06T10:50:52.488Z,29.14
2018-04-06T10:51:52.895Z,28.54
2018-04-06T10:52:53.078Z,28.54
2018-04-06T10:53:53.120Z,28.76
2018-04-06T10:54:54.159Z,28.83
2018-04-06T10:55:53.811Z,28.94
2018-04-06T10:56:53.749Z,28.98
2018-04-06T10:57:53.976Z,28.78
2018-04-06T10:58:54.367Z,28.78
2018-04-06T10:59:54.310Z,28.18
2018-04-06T11:00:54.405Z,27.34
2018-04-06T11:01:54.857Z,26.57
2018-04-06T11:02:54.876Z,26.19
2018-04-06T11:03:55.523Z,26.03
2018-04-06T11:04:55.996Z,26.03
2018-04-06T11:05:55.677Z,26.15
2018-04-06T11:06:56.095Z,25.89
2018-04-06T11:07:56.253Z,25.54
2018-04-06T11:08:56.764Z,25.15
2018-04-06T11:09:56.556Z,24.83
2018-04-06T11:10:56.515Z,24.34
2018-04-06T11:11:56.707Z,23.9
2018-04-06T11:12:57.127Z,23.82
2018-04-06T11:13:57.550Z,23.84
2018-04-06T11:14:57.241Z,23.71
2018-04-06T11:15:57.347Z,23.52
2018-04-06T11:16:57.312Z,23.48
2018-04-06T11:17:58.020Z,23.41
2018-04-06T11:18:58.028Z,23.32
2018-04-06T11:19:58.050Z,23.15
2018-04-06T11:20:57.919Z,22.94
2018-04-06T11:21:58.095Z,22.75
2018-04-06T11:22:58.484Z,22.49
2018-04-06T11:23:58.366Z,22.12
2018-04-06T11:24:58.524Z,21.93
2018-04-06T11:25:58.912Z,21.83
2018-04-06T11:26:59.360Z,21.71
2018-04-06T11:27:59.757Z,21.31
2018-04-06T11:29:00.418Z,21.09
2018-04-06T11:30:00.343Z,20.82
2018-04-06T11:31:00.267Z,20.53
2018-04-06T11:32:00.402Z,20.18
2018-04-06T11:33:00.494Z,20
2018-04-06T11:34:00.300Z,19.75
2018-04-06T11:35:00.353Z,19.79
2018-04-06T11:36:00.575Z,19.75
2018-04-06T11:37:00.366Z,19.71
2018-04-06T11:38:00.875Z,19.74
2018-04-06T11:39:00.547Z,19.56
2018-04-06T11:40:01.790Z,19.37
2018-04-06T11:41:01.414Z,19.09
2018-04-06T11:42:01.706Z,18.84
2018-04-06T11:43:01.939Z,18.66
2018-04-06T11:44:01.714Z,18.59
2018-04-06T11:45:02.178Z,18.42
2018-04-06T11:46:01.764Z,18.29
2018-04-06T11:47:01.882Z,18.11
2018-04-06T11:48:02.489Z,17.98
2018-04-06T11:49:02.164Z,17.71
2018-04-06T11:50:02.273Z,17.57
2018-04-06T11:51:02.291Z,17.32
2018-04-06T11:52:02.648Z,17.1
2018-04-06T11:53:02.469Z,16.73
2018-04-06T11:54:02.994Z,16.34
2018-04-06T11:55:03.148Z,15.92
2018-04-06T11:56:03.222Z,15.71
2018-04-06T11:57:03.106Z,15.56
2018-04-06T11:58:04.858Z,15.26
2018-04-06T11:59:04.138Z,15.18
2018-04-06T12:00:16.444Z,14.9
2018-04-06T12:01:03.563Z,14.8
2018-04-06T12:02:03.892Z,14.77
2018-04-06T12:03:04.038Z,14.63
2018-04-06T12:04:04.318Z,14.52
2018-04-06T12:05:04.545Z,14.33
2018-04-06T12:06:04.203Z,14.23
2018-04-06T12:07:04.508Z,14.23
2018-04-06T12:08:04.347Z,14.12
2018-04-06T12:09:05.030Z,14.01
2018-04-06T12:10:05.265Z,14.03
2018-04-06T12:11:05.393Z,14.08
2018-04-06T12:12:06.063Z,14.02
2018-04-06T12:13:06.544Z,13.99
2018-04-06T12:14:06.584Z,13.99
2018-04-06T12:15:06.670Z,13.99
2018-04-06T12:16:06.073Z,13.9
2018-04-06T12:17:06.597Z,13.87
2018-04-06T12:18:06.303Z,13.81
2018-04-06T12:19:06.818Z,13.69
2018-04-06T12:20:06.917Z,13.7
2018-04-06T12:21:06.407Z,13.66
2018-04-06T12:22:07.128Z,13.66
2018-04-06T12:23:07.368Z,13.62
2018-04-06T12:24:07.374Z,13.6
2018-04-06T12:25:07.788Z,13.65
2018-04-06T12:26:08.182Z,13.62
2018-04-06T12:27:08.090Z,13.6
2018-04-06T12:28:08.304Z,13.63
2018-04-06T12:29:08.353Z,13.68
2018-04-06T12:30:08.862Z,13.58
2018-04-06T12:31:08.846Z,13.66
2018-04-06T12:32:09.057Z,13.65
2018-04-06T12:33:09.371Z,13.55
2018-04-06T12:34:09.358Z,13.62
2018-04-06T12:35:09.607Z,13.58
2018-04-06T12:36:10.281Z,13.63
2018-04-06T12:37:10.471Z,13.58
2018-04-06T12:38:10.681Z,13.65
2018-04-06T12:39:10.704Z,13.55
2018-04-06T12:40:11.259Z,13.55
2018-04-06T12:41:11.080Z,13.57
2018-04-06T12:42:11.216Z,13.53
2018-04-06T12:43:11.256Z,13.51
2018-04-06T12:44:11.168Z,13.53
2018-04-06T12:45:11.326Z,13.47
2018-04-06T12:46:10.895Z,13.44
2018-04-06T12:47:11.769Z,13.47
2018-04-06T12:48:11.240Z,13.29
2018-04-06T12:49:12.534Z,13.35
2018-04-06T12:50:11.869Z,13.31
2018-04-06T12:51:12.138Z,13.39
2018-04-06T12:52:12.144Z,13.36
2018-04-06T12:53:12.727Z,13.32
2018-04-06T12:54:12.223Z,13.37
2018-04-06T12:55:12.100Z,13.37
2018-04-06T12:56:12.205Z,13.29
2018-04-06T12:57:13.260Z,13.31
2018-04-06T12:58:13.058Z,13.31
2018-04-06T12:59:12.442Z,13.21
2018-04-06T13:00:18.971Z,13.37
2018-04-06T13:01:12.824Z,13.37
2018-04-06T13:02:13.014Z,13.35
2018-04-06T13:03:12.414Z,13.29
2018-04-06T13:04:12.464Z,13.25
2018-04-06T13:05:12.169Z,13.2
2018-04-06T13:06:12.514Z,13.36
2018-04-06T13:07:12.260Z,13.21
2018-04-06T13:08:12.606Z,13.4